sensor_id;sensor_type;location;lat;lon;timestamp;temperature;humidity
24560;DHT22;12727;49.934;8.656;2023-12-29T00:00:41;9.10;99.90
24560;DHT22;12727;49.934;8.656;2023-12-29T00:03:07;9.10;99.90
24560;DHT22;12727;49.934;8.656;2023-12-29T00:05:32;9.20;99.90
24560;DHT22;12727;49.934;8.656;2023-12-29T00:07:58;9.20;99.90
24560;DHT22;12727;49.934;8.656;2023-12-29T00:10:23;9.20;99.90
24560;DHT22;12727;49.934;8.656;2023-12-29T00:12:49;9.20;99.90
24560;DHT22;12727;49.934;8.656;2023-12-29T00:15:17;9.20;99.90
24560;DHT22;12727;49.934;8.656;2023-12-29T00:17:44;9.20;99.90
24560;DHT22;12727;49.934;8.656;2023-12-29T00:20:10;9.20;99.90
24560;DHT22;12727;49.934;8.656;2023-12-29T00:22:35;9.40;99.90
24560;DHT22;12727;49.934;8.656;2023-12-29T00:25:01;9.20;99.90
24560;DHT22;12727;49.934;8.656;2023-12-29T00:27:28;9.20;99.90
24560;DHT22;12727;49.934;8.656;2023-12-29T00:29:53;9.30;99.90
24560;DHT22;12727;49.934;8.656;2023-12-29T00:32:19;9.30;99.90
24560;DHT22;12727;49.934;8.656;2023-12-29T00:34:45;9.40;99.90
24560;DHT22;12727;49.934;8.656;2023-12-29T00:37:11;9.40;99.90
24560;DHT22;12727;49.934;8.656;2023-12-29T00:39:36;9.40;99.90
24560;DHT22;12727;49.934;8.656;2023-12-29T00:42:04;9.40;99.90
24560;DHT22;12727;49.934;8.656;2023-12-29T00:44:31;9.40;99.90
24560;DHT22;12727;49.934;8.656;2023-12-29T00:46:57;9.40;99.90
24560;DHT22;12727;49.934;8.656;2023-12-29T00:49:22;9.50;99.90
24560;DHT22;12727;49.934;8.656;2023-12-29T00:51:48;9.50;99.90
24560;DHT22;12727;49.934;8.656;2023-12-29T00:54:14;9.50;99.90
24560;DHT22;12727;49.934;8.656;2023-12-29T00:56:39;9.50;99.90
24560;DHT22;12727;49.934;8.656;2023-12-29T00:59:05;9.40;99.90
24560;DHT22;12727;49.934;8.656;2023-12-29T01:01:36;9.40;99.90
24560;DHT22;12727;49.934;8.656;2023-12-29T01:04:02;9.40;99.90
24560;DHT22;12727;49.934;8.656;2023-12-29T01:06:28;9.30;99.90
24560;DHT22;12727;49.934;8.656;2023-12-29T01:08:53;9.30;99.90
24560;DHT22;12727;49.934;8.656;2023-12-29T01:11:19;9.30;99.90
24560;DHT22;12727;49.934;8.656;2023-12-29T01:13:45;9.30;99.90
24560;DHT22;12727;49.934;8.656;2023-12-29T01:16:10;9.30;99.90
24560;DHT22;12727;49.934;8.656;2023-12-29T01:18:36;9.30;99.90
24560;DHT22;12727;49.934;8.656;2023-12-29T01:21:01;9.30;99.90
24560;DHT22;12727;49.934;8.656;2023-12-29T01:23:27;9.30;99.90
24560;DHT22;12727;49.934;8.656;2023-12-29T01:25:53;9.30;99.90
24560;DHT22;12727;49.934;8.656;2023-12-29T01:28:18;9.30;99.90
24560;DHT22;12727;49.934;8.656;2023-12-29T01:30:44;9.20;99.90
24560;DHT22;12727;49.934;8.656;2023-12-29T01:33:11;9.30;99.90
24560;DHT22;12727;49.934;8.656;2023-12-29T01:35:36;9.30;99.90
24560;DHT22;12727;49.934;8.656;2023-12-29T01:38:03;9.30;99.90
24560;DHT22;12727;49.934;8.656;2023-12-29T01:40:28;9.40;99.90
24560;DHT22;12727;49.934;8.656;2023-12-29T01:42:54;9.40;99.90
24560;DHT22;12727;49.934;8.656;2023-12-29T01:45:21;9.40;99.90
24560;DHT22;12727;49.934;8.656;2023-12-29T01:47:48;9.40;99.90
24560;DHT22;12727;49.934;8.656;2023-12-29T01:50:14;9.40;99.90
24560;DHT22;12727;49.934;8.656;2023-12-29T01:52:42;9.40;99.90
24560;DHT22;12727;49.934;8.656;2023-12-29T01:55:11;9.40;99.90
24560;DHT22;12727;49.934;8.656;2023-12-29T01:57:38;9.50;99.90
24560;DHT22;12727;49.934;8.656;2023-12-29T02:00:05;9.40;99.90
24560;DHT22;12727;49.934;8.656;2023-12-29T02:02:31;9.20;99.90
24560;DHT22;12727;49.934;8.656;2023-12-29T02:04:57;9.20;99.90
24560;DHT22;12727;49.934;8.656;2023-12-29T02:07:23;9.20;99.90
24560;DHT22;12727;49.934;8.656;2023-12-29T02:09:50;9.10;99.90
24560;DHT22;12727;49.934;8.656;2023-12-29T02:12:17;9.20;99.90
24560;DHT22;12727;49.934;8.656;2023-12-29T02:14:43;9.20;99.90
24560;DHT22;12727;49.934;8.656;2023-12-29T02:17:22;9.20;99.90
24560;DHT22;12727;49.934;8.656;2023-12-29T02:19:52;9.20;99.90
24560;DHT22;12727;49.934;8.656;2023-12-29T02:22:18;9.20;99.90
24560;DHT22;12727;49.934;8.656;2023-12-29T02:24:47;9.20;99.90
24560;DHT22;12727;49.934;8.656;2023-12-29T02:30:41;9.20;99.90
24560;DHT22;12727;49.934;8.656;2023-12-29T02:33:10;9.10;99.90
24560;DHT22;12727;49.934;8.656;2023-12-29T02:35:41;9.00;99.90
24560;DHT22;12727;49.934;8.656;2023-12-29T02:38:07;9.20;99.90
24560;DHT22;12727;49.934;8.656;2023-12-29T02:40:33;9.20;99.90
24560;DHT22;12727;49.934;8.656;2023-12-29T02:42:59;9.30;99.90
24560;DHT22;12727;49.934;8.656;2023-12-29T02:45:25;9.30;99.90
24560;DHT22;12727;49.934;8.656;2023-12-29T02:47:51;9.30;99.90
24560;DHT22;12727;49.934;8.656;2023-12-29T02:50:16;9.20;99.90
24560;DHT22;12727;49.934;8.656;2023-12-29T02:52:42;9.00;99.90
24560;DHT22;12727;49.934;8.656;2023-12-29T02:55:08;9.00;99.90
24560;DHT22;12727;49.934;8.656;2023-12-29T02:57:34;8.90;99.90
24560;DHT22;12727;49.934;8.656;2023-12-29T02:59:59;8.90;99.90
24560;DHT22;12727;49.934;8.656;2023-12-29T03:02:25;8.80;99.90
24560;DHT22;12727;49.934;8.656;2023-12-29T03:04:51;8.70;99.90
24560;DHT22;12727;49.934;8.656;2023-12-29T03:07:16;8.70;99.90
24560;DHT22;12727;49.934;8.656;2023-12-29T03:09:42;8.80;99.90
24560;DHT22;12727;49.934;8.656;2023-12-29T03:12:07;8.90;99.90
24560;DHT22;12727;49.934;8.656;2023-12-29T03:14:33;8.80;99.90
24560;DHT22;12727;49.934;8.656;2023-12-29T03:16:59;8.80;99.90
24560;DHT22;12727;49.934;8.656;2023-12-29T03:19:24;8.90;99.90
24560;DHT22;12727;49.934;8.656;2023-12-29T03:21:50;8.80;99.90
24560;DHT22;12727;49.934;8.656;2023-12-29T03:24:16;8.80;99.90
24560;DHT22;12727;49.934;8.656;2023-12-29T03:26:42;9.00;99.90
24560;DHT22;12727;49.934;8.656;2023-12-29T03:29:07;8.90;99.90
24560;DHT22;12727;49.934;8.656;2023-12-29T03:31:33;8.80;99.90
24560;DHT22;12727;49.934;8.656;2023-12-29T03:33:59;8.80;99.90
24560;DHT22;12727;49.934;8.656;2023-12-29T03:36:24;8.90;99.90
24560;DHT22;12727;49.934;8.656;2023-12-29T03:38:50;8.80;99.90
24560;DHT22;12727;49.934;8.656;2023-12-29T03:41:15;8.80;99.90
24560;DHT22;12727;49.934;8.656;2023-12-29T03:43:41;8.80;99.90
24560;DHT22;12727;49.934;8.656;2023-12-29T03:46:17;8.80;99.90
24560;DHT22;12727;49.934;8.656;2023-12-29T03:48:43;8.70;99.90
24560;DHT22;12727;49.934;8.656;2023-12-29T03:51:08;8.70;99.90
24560;DHT22;12727;49.934;8.656;2023-12-29T03:53:34;8.70;99.90
24560;DHT22;12727;49.934;8.656;2023-12-29T03:56:07;8.60;99.90
24560;DHT22;12727;49.934;8.656;2023-12-29T03:58:33;8.60;99.90
24560;DHT22;12727;49.934;8.656;2023-12-29T04:00:59;8.50;99.90
24560;DHT22;12727;49.934;8.656;2023-12-29T04:03:24;8.60;99.90
24560;DHT22;12727;49.934;8.656;2023-12-29T04:05:50;8.60;99.90
24560;DHT22;12727;49.934;8.656;2023-12-29T04:08:16;8.60;99.90
24560;DHT22;12727;49.934;8.656;2023-12-29T04:10:41;8.50;99.90
24560;DHT22;12727;49.934;8.656;2023-12-29T04:13:07;8.60;99.90
24560;DHT22;12727;49.934;8.656;2023-12-29T04:15:33;8.60;99.90
24560;DHT22;12727;49.934;8.656;2023-12-29T04:17:58;8.50;99.90
24560;DHT22;12727;49.934;8.656;2023-12-29T04:20:24;8.40;99.90
24560;DHT22;12727;49.934;8.656;2023-12-29T04:22:50;8.50;99.90
24560;DHT22;12727;49.934;8.656;2023-12-29T04:25:15;8.50;99.90
24560;DHT22;12727;49.934;8.656;2023-12-29T04:27:41;8.50;99.90
24560;DHT22;12727;49.934;8.656;2023-12-29T04:30:07;8.30;99.90
24560;DHT22;12727;49.934;8.656;2023-12-29T04:32:33;8.30;99.90
24560;DHT22;12727;49.934;8.656;2023-12-29T04:34:59;8.40;99.90
24560;DHT22;12727;49.934;8.656;2023-12-29T04:37:24;8.40;99.90
24560;DHT22;12727;49.934;8.656;2023-12-29T04:39:50;8.40;99.90
24560;DHT22;12727;49.934;8.656;2023-12-29T04:42:15;8.40;99.90
24560;DHT22;12727;49.934;8.656;2023-12-29T04:44:43;8.40;99.90
24560;DHT22;12727;49.934;8.656;2023-12-29T04:47:09;8.40;99.90
24560;DHT22;12727;49.934;8.656;2023-12-29T04:49:35;8.40;99.90
24560;DHT22;12727;49.934;8.656;2023-12-29T04:52:00;8.40;99.90
24560;DHT22;12727;49.934;8.656;2023-12-29T04:54:27;8.40;99.90
24560;DHT22;12727;49.934;8.656;2023-12-29T04:56:52;8.50;99.90
24560;DHT22;12727;49.934;8.656;2023-12-29T04:59:18;8.40;99.90
24560;DHT22;12727;49.934;8.656;2023-12-29T05:01:43;8.30;99.90
24560;DHT22;12727;49.934;8.656;2023-12-29T05:04:09;8.30;99.90
24560;DHT22;12727;49.934;8.656;2023-12-29T05:06:34;8.40;99.90
24560;DHT22;12727;49.934;8.656;2023-12-29T05:09:00;8.40;99.90
24560;DHT22;12727;49.934;8.656;2023-12-29T05:11:26;8.40;99.90
24560;DHT22;12727;49.934;8.656;2023-12-29T05:13:51;8.40;99.90
24560;DHT22;12727;49.934;8.656;2023-12-29T05:16:17;8.30;99.90
24560;DHT22;12727;49.934;8.656;2023-12-29T05:18:43;8.30;99.90
24560;DHT22;12727;49.934;8.656;2023-12-29T05:21:17;8.30;99.90
24560;DHT22;12727;49.934;8.656;2023-12-29T05:23:45;8.30;99.90
24560;DHT22;12727;49.934;8.656;2023-12-29T05:26:13;8.50;99.90
24560;DHT22;12727;49.934;8.656;2023-12-29T05:28:38;8.50;99.90
24560;DHT22;12727;49.934;8.656;2023-12-29T05:31:04;8.60;99.90
24560;DHT22;12727;49.934;8.656;2023-12-29T05:33:30;8.60;99.90
24560;DHT22;12727;49.934;8.656;2023-12-29T05:35:56;8.60;99.90
24560;DHT22;12727;49.934;8.656;2023-12-29T05:38:22;8.60;99.90
24560;DHT22;12727;49.934;8.656;2023-12-29T05:40:48;8.60;99.90
24560;DHT22;12727;49.934;8.656;2023-12-29T05:43:15;8.60;99.90
24560;DHT22;12727;49.934;8.656;2023-12-29T05:45:40;8.60;99.90
24560;DHT22;12727;49.934;8.656;2023-12-29T05:48:06;8.60;99.90
24560;DHT22;12727;49.934;8.656;2023-12-29T05:50:32;8.70;99.90
24560;DHT22;12727;49.934;8.656;2023-12-29T05:52:58;8.80;99.90
24560;DHT22;12727;49.934;8.656;2023-12-29T05:55:23;8.80;99.90
24560;DHT22;12727;49.934;8.656;2023-12-29T05:57:49;8.90;99.90
24560;DHT22;12727;49.934;8.656;2023-12-29T06:00:15;8.90;99.90
24560;DHT22;12727;49.934;8.656;2023-12-29T06:02:41;9.00;99.90
24560;DHT22;12727;49.934;8.656;2023-12-29T06:05:09;9.00;99.90
24560;DHT22;12727;49.934;8.656;2023-12-29T06:07:35;9.00;99.90
24560;DHT22;12727;49.934;8.656;2023-12-29T06:10:01;9.00;99.90
24560;DHT22;12727;49.934;8.656;2023-12-29T06:12:27;9.10;99.90
24560;DHT22;12727;49.934;8.656;2023-12-29T06:14:52;9.10;99.90
24560;DHT22;12727;49.934;8.656;2023-12-29T06:17:18;9.00;99.90
24560;DHT22;12727;49.934;8.656;2023-12-29T06:19:44;9.10;99.90
24560;DHT22;12727;49.934;8.656;2023-12-29T06:22:09;9.10;99.90
24560;DHT22;12727;49.934;8.656;2023-12-29T06:24:37;9.20;99.90
24560;DHT22;12727;49.934;8.656;2023-12-29T06:27:03;9.00;99.90
24560;DHT22;12727;49.934;8.656;2023-12-29T06:29:29;9.20;99.90
24560;DHT22;12727;49.934;8.656;2023-12-29T06:31:54;9.20;99.90
24560;DHT22;12727;49.934;8.656;2023-12-29T06:34:20;9.20;99.90
24560;DHT22;12727;49.934;8.656;2023-12-29T06:36:46;9.20;99.90
24560;DHT22;12727;49.934;8.656;2023-12-29T06:39:11;9.20;99.90
24560;DHT22;12727;49.934;8.656;2023-12-29T06:41:37;9.30;99.90
24560;DHT22;12727;49.934;8.656;2023-12-29T06:44:02;9.30;99.90
24560;DHT22;12727;49.934;8.656;2023-12-29T06:46:28;9.30;99.90
24560;DHT22;12727;49.934;8.656;2023-12-29T06:48:54;9.40;99.90
24560;DHT22;12727;49.934;8.656;2023-12-29T06:51:20;9.40;99.90
24560;DHT22;12727;49.934;8.656;2023-12-29T06:53:48;9.40;99.90
24560;DHT22;12727;49.934;8.656;2023-12-29T06:56:17;9.40;99.90
24560;DHT22;12727;49.934;8.656;2023-12-29T06:58:43;9.30;99.90
24560;DHT22;12727;49.934;8.656;2023-12-29T07:01:10;9.40;99.90
24560;DHT22;12727;49.934;8.656;2023-12-29T07:03:36;9.40;99.90
24560;DHT22;12727;49.934;8.656;2023-12-29T07:06:01;9.50;99.90
24560;DHT22;12727;49.934;8.656;2023-12-29T07:08:27;9.40;99.90
24560;DHT22;12727;49.934;8.656;2023-12-29T07:10:53;9.40;99.90
24560;DHT22;12727;49.934;8.656;2023-12-29T07:13:19;9.40;99.90
24560;DHT22;12727;49.934;8.656;2023-12-29T07:15:46;9.30;99.90
24560;DHT22;12727;49.934;8.656;2023-12-29T07:18:11;9.40;99.90
24560;DHT22;12727;49.934;8.656;2023-12-29T07:20:37;9.40;99.90
24560;DHT22;12727;49.934;8.656;2023-12-29T07:23:03;9.40;99.90
24560;DHT22;12727;49.934;8.656;2023-12-29T07:25:29;9.30;99.90
24560;DHT22;12727;49.934;8.656;2023-12-29T07:27:54;9.20;99.90
24560;DHT22;12727;49.934;8.656;2023-12-29T07:30:20;9.20;99.90
24560;DHT22;12727;49.934;8.656;2023-12-29T07:32:45;9.20;99.90
24560;DHT22;12727;49.934;8.656;2023-12-29T07:35:11;9.20;99.90
24560;DHT22;12727;49.934;8.656;2023-12-29T07:37:37;9.20;99.90
24560;DHT22;12727;49.934;8.656;2023-12-29T07:40:02;9.10;99.90
24560;DHT22;12727;49.934;8.656;2023-12-29T07:42:29;9.10;99.90
24560;DHT22;12727;49.934;8.656;2023-12-29T07:44:54;9.20;99.90
24560;DHT22;12727;49.934;8.656;2023-12-29T07:47:21;9.10;99.90
24560;DHT22;12727;49.934;8.656;2023-12-29T07:49:47;9.10;99.90
24560;DHT22;12727;49.934;8.656;2023-12-29T07:52:13;9.00;99.90
24560;DHT22;12727;49.934;8.656;2023-12-29T07:54:38;9.10;99.90
24560;DHT22;12727;49.934;8.656;2023-12-29T07:57:04;9.20;99.90
24560;DHT22;12727;49.934;8.656;2023-12-29T07:59:30;9.20;99.90
24560;DHT22;12727;49.934;8.656;2023-12-29T08:01:55;9.30;99.90
24560;DHT22;12727;49.934;8.656;2023-12-29T08:04:23;9.30;99.90
24560;DHT22;12727;49.934;8.656;2023-12-29T08:06:49;9.40;99.90
24560;DHT22;12727;49.934;8.656;2023-12-29T08:09:14;9.50;99.90
24560;DHT22;12727;49.934;8.656;2023-12-29T08:11:40;9.60;99.90
24560;DHT22;12727;49.934;8.656;2023-12-29T08:14:08;9.70;99.90
24560;DHT22;12727;49.934;8.656;2023-12-29T08:16:38;9.80;99.90
24560;DHT22;12727;49.934;8.656;2023-12-29T08:19:05;9.90;99.90
24560;DHT22;12727;49.934;8.656;2023-12-29T08:21:32;9.90;99.90
24560;DHT22;12727;49.934;8.656;2023-12-29T08:23:57;10.00;99.90
24560;DHT22;12727;49.934;8.656;2023-12-29T08:26:23;10.00;99.90
24560;DHT22;12727;49.934;8.656;2023-12-29T08:28:48;10.10;99.90
24560;DHT22;12727;49.934;8.656;2023-12-29T08:31:14;10.10;99.90
24560;DHT22;12727;49.934;8.656;2023-12-29T08:33:40;10.10;99.90
24560;DHT22;12727;49.934;8.656;2023-12-29T08:36:06;10.10;99.90
24560;DHT22;12727;49.934;8.656;2023-12-29T08:38:32;10.20;99.90
24560;DHT22;12727;49.934;8.656;2023-12-29T08:40:58;10.20;99.90
24560;DHT22;12727;49.934;8.656;2023-12-29T08:43:24;10.20;99.90
24560;DHT22;12727;49.934;8.656;2023-12-29T08:45:50;10.20;99.90
24560;DHT22;12727;49.934;8.656;2023-12-29T08:48:16;10.20;99.90
24560;DHT22;12727;49.934;8.656;2023-12-29T08:50:42;10.20;99.90
24560;DHT22;12727;49.934;8.656;2023-12-29T08:53:08;10.30;99.90
24560;DHT22;12727;49.934;8.656;2023-12-29T08:55:34;10.30;99.90
24560;DHT22;12727;49.934;8.656;2023-12-29T08:58:00;10.30;99.90
24560;DHT22;12727;49.934;8.656;2023-12-29T09:00:26;10.30;99.90
24560;DHT22;12727;49.934;8.656;2023-12-29T09:02:52;10.30;99.90
24560;DHT22;12727;49.934;8.656;2023-12-29T09:05:20;10.40;99.90
24560;DHT22;12727;49.934;8.656;2023-12-29T09:07:46;10.40;99.90
24560;DHT22;12727;49.934;8.656;2023-12-29T09:10:12;10.40;99.90
24560;DHT22;12727;49.934;8.656;2023-12-29T09:12:38;10.40;99.90
24560;DHT22;12727;49.934;8.656;2023-12-29T09:15:05;10.40;99.90
24560;DHT22;12727;49.934;8.656;2023-12-29T09:17:31;10.30;99.90
24560;DHT22;12727;49.934;8.656;2023-12-29T09:19:56;10.30;99.90
24560;DHT22;12727;49.934;8.656;2023-12-29T09:22:22;10.30;99.90
24560;DHT22;12727;49.934;8.656;2023-12-29T09:24:48;10.30;99.90
24560;DHT22;12727;49.934;8.656;2023-12-29T09:27:13;10.30;99.90
24560;DHT22;12727;49.934;8.656;2023-12-29T09:29:39;10.30;99.90
24560;DHT22;12727;49.934;8.656;2023-12-29T09:32:05;10.50;99.90
24560;DHT22;12727;49.934;8.656;2023-12-29T09:34:31;10.50;99.90
24560;DHT22;12727;49.934;8.656;2023-12-29T09:36:57;10.60;99.90
24560;DHT22;12727;49.934;8.656;2023-12-29T09:39:22;10.60;99.90
24560;DHT22;12727;49.934;8.656;2023-12-29T09:41:51;10.90;99.90
24560;DHT22;12727;49.934;8.656;2023-12-29T09:44:20;11.20;99.90
24560;DHT22;12727;49.934;8.656;2023-12-29T09:46:53;11.30;99.90
24560;DHT22;12727;49.934;8.656;2023-12-29T09:49:19;11.40;99.90
24560;DHT22;12727;49.934;8.656;2023-12-29T09:51:45;11.50;99.90
24560;DHT22;12727;49.934;8.656;2023-12-29T09:54:11;11.50;99.90
24560;DHT22;12727;49.934;8.656;2023-12-29T09:56:37;11.50;99.90
24560;DHT22;12727;49.934;8.656;2023-12-29T09:59:03;11.70;99.90
24560;DHT22;12727;49.934;8.656;2023-12-29T10:01:30;11.70;99.90
24560;DHT22;12727;49.934;8.656;2023-12-29T10:03:57;11.80;99.90
24560;DHT22;12727;49.934;8.656;2023-12-29T10:06:24;11.80;99.90
24560;DHT22;12727;49.934;8.656;2023-12-29T10:08:51;11.70;99.90
24560;DHT22;12727;49.934;8.656;2023-12-29T10:11:20;11.60;99.90
24560;DHT22;12727;49.934;8.656;2023-12-29T10:13:49;11.50;99.90
24560;DHT22;12727;49.934;8.656;2023-12-29T10:16:28;11.50;99.90
24560;DHT22;12727;49.934;8.656;2023-12-29T10:21:57;11.60;99.90
24560;DHT22;12727;49.934;8.656;2023-12-29T10:24:24;11.70;99.90
24560;DHT22;12727;49.934;8.656;2023-12-29T10:26:49;11.70;99.90
24560;DHT22;12727;49.934;8.656;2023-12-29T10:29:16;11.60;99.90
24560;DHT22;12727;49.934;8.656;2023-12-29T10:31:44;11.60;99.90
24560;DHT22;12727;49.934;8.656;2023-12-29T10:34:20;11.60;99.90
24560;DHT22;12727;49.934;8.656;2023-12-29T10:36:47;11.60;99.90
24560;DHT22;12727;49.934;8.656;2023-12-29T10:39:14;11.60;99.90
24560;DHT22;12727;49.934;8.656;2023-12-29T10:41:40;11.60;99.90
24560;DHT22;12727;49.934;8.656;2023-12-29T10:44:07;11.80;99.90
24560;DHT22;12727;49.934;8.656;2023-12-29T10:46:33;11.70;99.90
24560;DHT22;12727;49.934;8.656;2023-12-29T10:51:35;11.50;99.90
24560;DHT22;12727;49.934;8.656;2023-12-29T10:54:00;11.40;99.90
24560;DHT22;12727;49.934;8.656;2023-12-29T10:56:26;11.40;99.90
24560;DHT22;12727;49.934;8.656;2023-12-29T10:59:06;11.30;99.90
24560;DHT22;12727;49.934;8.656;2023-12-29T11:01:34;11.30;99.90
24560;DHT22;12727;49.934;8.656;2023-12-29T11:04:02;11.20;99.90
24560;DHT22;12727;49.934;8.656;2023-12-29T11:06:28;11.10;99.90
24560;DHT22;12727;49.934;8.656;2023-12-29T11:08:55;11.10;99.90
24560;DHT22;12727;49.934;8.656;2023-12-29T11:11:21;11.10;99.90
24560;DHT22;12727;49.934;8.656;2023-12-29T11:13:47;11.10;99.90
24560;DHT22;12727;49.934;8.656;2023-12-29T11:16:14;11.20;99.90
24560;DHT22;12727;49.934;8.656;2023-12-29T11:18:43;11.20;99.90
24560;DHT22;12727;49.934;8.656;2023-12-29T11:21:10;11.10;99.90
24560;DHT22;12727;49.934;8.656;2023-12-29T11:23:36;11.20;99.90
24560;DHT22;12727;49.934;8.656;2023-12-29T11:26:03;11.10;99.90
24560;DHT22;12727;49.934;8.656;2023-12-29T11:28:29;11.20;99.90
24560;DHT22;12727;49.934;8.656;2023-12-29T11:30:54;11.10;99.90
24560;DHT22;12727;49.934;8.656;2023-12-29T11:33:23;11.10;99.90
24560;DHT22;12727;49.934;8.656;2023-12-29T11:35:56;11.00;99.90
24560;DHT22;12727;49.934;8.656;2023-12-29T11:38:41;11.00;99.90
24560;DHT22;12727;49.934;8.656;2023-12-29T11:43:58;11.20;99.90
24560;DHT22;12727;49.934;8.656;2023-12-29T11:46:37;11.20;99.90
24560;DHT22;12727;49.934;8.656;2023-12-29T11:49:03;11.20;99.90
24560;DHT22;12727;49.934;8.656;2023-12-29T11:53:55;11.30;99.90
24560;DHT22;12727;49.934;8.656;2023-12-29T11:56:21;11.40;99.90
24560;DHT22;12727;49.934;8.656;2023-12-29T11:58:46;11.50;99.90
24560;DHT22;12727;49.934;8.656;2023-12-29T12:01:12;11.50;99.90
24560;DHT22;12727;49.934;8.656;2023-12-29T12:03:37;11.50;99.90
24560;DHT22;12727;49.934;8.656;2023-12-29T12:06:04;11.50;99.90
24560;DHT22;12727;49.934;8.656;2023-12-29T12:08:34;11.50;99.90
24560;DHT22;12727;49.934;8.656;2023-12-29T12:13:55;11.60;99.90
24560;DHT22;12727;49.934;8.656;2023-12-29T12:19:12;11.60;99.90
24560;DHT22;12727;49.934;8.656;2023-12-29T12:21:38;11.60;99.90
24560;DHT22;12727;49.934;8.656;2023-12-29T12:24:05;11.70;99.90
24560;DHT22;12727;49.934;8.656;2023-12-29T12:26:31;11.60;99.90
24560;DHT22;12727;49.934;8.656;2023-12-29T12:28:58;11.70;99.90
24560;DHT22;12727;49.934;8.656;2023-12-29T12:31:24;11.70;99.90
24560;DHT22;12727;49.934;8.656;2023-12-29T12:33:59;11.80;99.90
24560;DHT22;12727;49.934;8.656;2023-12-29T12:36:28;11.70;99.90
24560;DHT22;12727;49.934;8.656;2023-12-29T12:38:55;11.70;99.90
24560;DHT22;12727;49.934;8.656;2023-12-29T12:41:21;11.70;99.90
24560;DHT22;12727;49.934;8.656;2023-12-29T12:44:14;11.70;99.90
24560;DHT22;12727;49.934;8.656;2023-12-29T12:47:01;11.70;99.90
24560;DHT22;12727;49.934;8.656;2023-12-29T12:49:31;11.70;99.90
24560;DHT22;12727;49.934;8.656;2023-12-29T12:51:56;11.80;99.90
24560;DHT22;12727;49.934;8.656;2023-12-29T12:54:22;11.80;99.90
24560;DHT22;12727;49.934;8.656;2023-12-29T12:56:49;11.90;99.90
24560;DHT22;12727;49.934;8.656;2023-12-29T12:59:15;11.80;99.90
24560;DHT22;12727;49.934;8.656;2023-12-29T13:01:42;11.80;99.90
24560;DHT22;12727;49.934;8.656;2023-12-29T13:04:08;11.80;99.90
24560;DHT22;12727;49.934;8.656;2023-12-29T13:06:39;11.80;99.90
24560;DHT22;12727;49.934;8.656;2023-12-29T13:09:07;11.80;99.90
24560;DHT22;12727;49.934;8.656;2023-12-29T13:11:37;11.80;99.90
24560;DHT22;12727;49.934;8.656;2023-12-29T13:14:03;11.70;99.90
24560;DHT22;12727;49.934;8.656;2023-12-29T13:16:37;11.70;99.90
24560;DHT22;12727;49.934;8.656;2023-12-29T13:19:22;11.60;99.90
24560;DHT22;12727;49.934;8.656;2023-12-29T13:21:51;11.60;99.90
24560;DHT22;12727;49.934;8.656;2023-12-29T13:24:24;11.60;99.90
24560;DHT22;12727;49.934;8.656;2023-12-29T13:27:05;11.60;99.90
24560;DHT22;12727;49.934;8.656;2023-12-29T13:29:31;11.60;99.90
24560;DHT22;12727;49.934;8.656;2023-12-29T13:32:04;11.60;99.90
24560;DHT22;12727;49.934;8.656;2023-12-29T13:37:49;11.60;99.90
24560;DHT22;12727;49.934;8.656;2023-12-29T13:40:27;11.50;99.90
24560;DHT22;12727;49.934;8.656;2023-12-29T13:42:59;11.50;99.90
24560;DHT22;12727;49.934;8.656;2023-12-29T13:45:27;11.40;99.90
24560;DHT22;12727;49.934;8.656;2023-12-29T13:47:54;11.30;99.90
24560;DHT22;12727;49.934;8.656;2023-12-29T13:50:21;11.30;99.90
24560;DHT22;12727;49.934;8.656;2023-12-29T13:52:47;11.20;99.90
24560;DHT22;12727;49.934;8.656;2023-12-29T13:55:21;11.20;99.90
24560;DHT22;12727;49.934;8.656;2023-12-29T13:57:52;11.20;99.90
24560;DHT22;12727;49.934;8.656;2023-12-29T14:00:20;11.10;99.90
24560;DHT22;12727;49.934;8.656;2023-12-29T14:05:28;11.10;99.90
24560;DHT22;12727;49.934;8.656;2023-12-29T14:08:00;11.00;99.90
24560;DHT22;12727;49.934;8.656;2023-12-29T14:10:31;11.00;99.90
24560;DHT22;12727;49.934;8.656;2023-12-29T14:13:13;11.00;99.90
24560;DHT22;12727;49.934;8.656;2023-12-29T14:15:41;11.10;99.90
24560;DHT22;12727;49.934;8.656;2023-12-29T14:18:18;11.10;99.90
24560;DHT22;12727;49.934;8.656;2023-12-29T14:20:48;11.10;99.90
24560;DHT22;12727;49.934;8.656;2023-12-29T14:23:13;11.10;99.90
24560;DHT22;12727;49.934;8.656;2023-12-29T14:25:43;11.00;99.90
24560;DHT22;12727;49.934;8.656;2023-12-29T14:28:20;11.00;99.90
24560;DHT22;12727;49.934;8.656;2023-12-29T14:30:49;11.10;99.90
24560;DHT22;12727;49.934;8.656;2023-12-29T14:33:16;11.10;99.90
24560;DHT22;12727;49.934;8.656;2023-12-29T14:35:42;11.10;99.90
24560;DHT22;12727;49.934;8.656;2023-12-29T14:38:07;11.10;99.90
24560;DHT22;12727;49.934;8.656;2023-12-29T14:40:33;11.10;99.90
24560;DHT22;12727;49.934;8.656;2023-12-29T14:43:01;11.00;99.90
24560;DHT22;12727;49.934;8.656;2023-12-29T14:45:27;11.00;99.90
24560;DHT22;12727;49.934;8.656;2023-12-29T14:47:58;11.00;99.90
24560;DHT22;12727;49.934;8.656;2023-12-29T14:50:24;11.00;99.90
24560;DHT22;12727;49.934;8.656;2023-12-29T14:52:49;11.10;99.90
24560;DHT22;12727;49.934;8.656;2023-12-29T14:55:15;11.00;99.90
24560;DHT22;12727;49.934;8.656;2023-12-29T14:57:40;11.00;99.90
24560;DHT22;12727;49.934;8.656;2023-12-29T15:00:07;11.00;99.90
24560;DHT22;12727;49.934;8.656;2023-12-29T15:02:34;11.00;99.90
24560;DHT22;12727;49.934;8.656;2023-12-29T15:05:00;11.00;99.90
24560;DHT22;12727;49.934;8.656;2023-12-29T15:07:25;10.90;99.90
24560;DHT22;12727;49.934;8.656;2023-12-29T15:09:56;10.90;99.90
24560;DHT22;12727;49.934;8.656;2023-12-29T15:12:21;10.80;99.90
24560;DHT22;12727;49.934;8.656;2023-12-29T15:14:47;10.70;99.90
24560;DHT22;12727;49.934;8.656;2023-12-29T15:17:12;10.70;99.90
24560;DHT22;12727;49.934;8.656;2023-12-29T15:19:38;10.80;99.90
24560;DHT22;12727;49.934;8.656;2023-12-29T15:22:04;10.70;99.90
24560;DHT22;12727;49.934;8.656;2023-12-29T15:24:29;10.70;99.90
24560;DHT22;12727;49.934;8.656;2023-12-29T15:26:55;10.80;99.90
24560;DHT22;12727;49.934;8.656;2023-12-29T15:29:20;10.70;99.90
24560;DHT22;12727;49.934;8.656;2023-12-29T15:31:46;10.70;99.90
24560;DHT22;12727;49.934;8.656;2023-12-29T15:34:12;10.60;99.90
24560;DHT22;12727;49.934;8.656;2023-12-29T15:36:38;10.60;99.90
24560;DHT22;12727;49.934;8.656;2023-12-29T15:39:04;10.60;99.90
24560;DHT22;12727;49.934;8.656;2023-12-29T15:41:33;10.60;99.90
24560;DHT22;12727;49.934;8.656;2023-12-29T15:43:59;10.60;99.90
24560;DHT22;12727;49.934;8.656;2023-12-29T15:46:24;10.70;99.90
24560;DHT22;12727;49.934;8.656;2023-12-29T15:48:51;10.70;99.90
24560;DHT22;12727;49.934;8.656;2023-12-29T15:51:16;10.70;99.90
24560;DHT22;12727;49.934;8.656;2023-12-29T15:53:42;10.70;99.90
24560;DHT22;12727;49.934;8.656;2023-12-29T15:56:16;10.70;99.90
24560;DHT22;12727;49.934;8.656;2023-12-29T15:58:42;10.60;99.90
24560;DHT22;12727;49.934;8.656;2023-12-29T16:01:07;10.60;99.90
24560;DHT22;12727;49.934;8.656;2023-12-29T16:03:33;10.50;99.90